Accueil
METAR-TAF:

METAR-TAF

Aéroports :

Aéroport international de Koweït

Koweït, Koweït

latitude: 29-13N, longitude: 047-59E, altitude: 55 m

Observation

Le bulletin a été fait il y a 48 minutes, à 22:00 UTC
Vent 15 kt de nord/nord-ouest
Température 36°C
Humidité 21%
Pression 1003 hPa
Visibilité 10 km ou plus
pas de nuages en-dessous de 1500 mètres et pas de cumulonimbus.

METAR: OKBK 202200Z 34015KT CAVOK 36/10 Q1003 NOSIG

Heure: 01:48 (22:48 UTC)

Prévision

Le bulletin a été fait il y a 6 heures et 3 minutes, à 16:45 UTC
Prévision valable du 20 à 18 UTC au 21 à 24 UTC
Vent 12 kt de nord/nord-ouest avec des rafales jusqu'à 25 kt
Visibilité: 6000 m
Ciel clair
Temporairement
du 20 à 18 UTC au 21 à 06 UTC
Visibilité: 4000 m
Chasse-poussière élevée

TAF: OKBK 201645Z 2018/2124 34012G25KT 6000 SKC TEMPO 2018/2106 4000 BLDU

Observations et prévisions météorologiques de plus de 4000 aéroports (messages METAR et TAF).

Les stations disponibles sont représentées par des disques jaunes et rouges sur la carte.

Passer la souris dessus pour voir le nom de la station.

Cliquer dessus pour voir les observations et prévisions météorologiques.

Pour changer de carte: cliquez sur les boutons verts avec une croix noire pour zoomer, sur le bouton vert avec un tiret pour effectuer un zoom arrière, ou sur les flèches vertes pour les cartes adjacentes.


METAR-TAF: